sensor_id;sensor_type;location;lat;lon;timestamp;temperature;humidity
25074;DHT22;13066;52.042;5.648;2022-12-18T00:01:28;-0.30;99.90
25074;DHT22;13066;52.042;5.648;2022-12-18T00:03:58;-0.30;99.90
25074;DHT22;13066;52.042;5.648;2022-12-18T00:06:28;-0.30;99.90
25074;DHT22;13066;52.042;5.648;2022-12-18T00:08:57;-0.30;99.90
25074;DHT22;13066;52.042;5.648;2022-12-18T00:11:28;-0.20;99.90
25074;DHT22;13066;52.042;5.648;2022-12-18T00:13:57;-0.30;99.90
25074;DHT22;13066;52.042;5.648;2022-12-18T00:16:28;-0.30;99.90
25074;DHT22;13066;52.042;5.648;2022-12-18T00:18:58;-0.30;99.90
25074;DHT22;13066;52.042;5.648;2022-12-18T00:21:26;-0.30;99.90
25074;DHT22;13066;52.042;5.648;2022-12-18T00:23:56;-0.30;99.90
25074;DHT22;13066;52.042;5.648;2022-12-18T00:26:26;-0.40;99.90
25074;DHT22;13066;52.042;5.648;2022-12-18T00:28:57;-0.40;99.90
25074;DHT22;13066;52.042;5.648;2022-12-18T00:31:27;-0.40;99.90
25074;DHT22;13066;52.042;5.648;2022-12-18T00:33:56;-0.40;99.90
25074;DHT22;13066;52.042;5.648;2022-12-18T00:36:25;-0.50;99.90
25074;DHT22;13066;52.042;5.648;2022-12-18T00:38:54;-0.50;99.90
25074;DHT22;13066;52.042;5.648;2022-12-18T00:41:23;-0.50;99.90
25074;DHT22;13066;52.042;5.648;2022-12-18T00:44:10;-0.50;99.90
25074;DHT22;13066;52.042;5.648;2022-12-18T00:46:40;-0.50;99.90
25074;DHT22;13066;52.042;5.648;2022-12-18T00:49:08;-0.50;99.90
25074;DHT22;13066;52.042;5.648;2022-12-18T00:51:36;-0.50;99.90
25074;DHT22;13066;52.042;5.648;2022-12-18T00:54:04;-0.60;99.90
25074;DHT22;13066;52.042;5.648;2022-12-18T00:56:32;-0.60;99.90
25074;DHT22;13066;52.042;5.648;2022-12-18T00:59:11;-0.60;99.90
25074;DHT22;13066;52.042;5.648;2022-12-18T01:01:40;-0.60;99.90
25074;DHT22;13066;52.042;5.648;2022-12-18T01:04:09;-0.70;99.90
25074;DHT22;13066;52.042;5.648;2022-12-18T01:06:37;-0.70;99.90
25074;DHT22;13066;52.042;5.648;2022-12-18T01:09:05;-0.70;99.90
25074;DHT22;13066;52.042;5.648;2022-12-18T01:11:33;-0.70;99.90
25074;DHT22;13066;52.042;5.648;2022-12-18T01:14:01;-0.70;99.90
25074;DHT22;13066;52.042;5.648;2022-12-18T01:16:29;-0.80;99.90
25074;DHT22;13066;52.042;5.648;2022-12-18T01:18:59;-0.80;99.90
25074;DHT22;13066;52.042;5.648;2022-12-18T01:21:27;-0.80;99.90
25074;DHT22;13066;52.042;5.648;2022-12-18T01:23:56;-0.80;99.90
25074;DHT22;13066;52.042;5.648;2022-12-18T01:26:25;-0.90;99.90
25074;DHT22;13066;52.042;5.648;2022-12-18T01:28:56;-0.90;99.90
25074;DHT22;13066;52.042;5.648;2022-12-18T01:31:26;-1.00;99.90
25074;DHT22;13066;52.042;5.648;2022-12-18T01:33:54;-1.00;99.90
25074;DHT22;13066;52.042;5.648;2022-12-18T01:36:26;-1.00;99.90
25074;DHT22;13066;52.042;5.648;2022-12-18T01:38:54;-1.00;99.90
25074;DHT22;13066;52.042;5.648;2022-12-18T01:41:24;-1.00;99.90
25074;DHT22;13066;52.042;5.648;2022-12-18T01:43:53;-1.00;99.90
25074;DHT22;13066;52.042;5.648;2022-12-18T01:46:23;-1.00;99.90
25074;DHT22;13066;52.042;5.648;2022-12-18T01:48:53;-1.00;99.90
25074;DHT22;13066;52.042;5.648;2022-12-18T01:51:23;-1.00;99.90
25074;DHT22;13066;52.042;5.648;2022-12-18T01:53:51;-1.00;99.90
25074;DHT22;13066;52.042;5.648;2022-12-18T01:56:20;-1.00;99.90
25074;DHT22;13066;52.042;5.648;2022-12-18T01:58:54;-1.10;99.90
25074;DHT22;13066;52.042;5.648;2022-12-18T02:01:25;-1.10;99.90
25074;DHT22;13066;52.042;5.648;2022-12-18T02:03:54;-1.10;99.90
25074;DHT22;13066;52.042;5.648;2022-12-18T02:06:26;-1.10;99.90
25074;DHT22;13066;52.042;5.648;2022-12-18T02:09:03;-1.10;99.90
25074;DHT22;13066;52.042;5.648;2022-12-18T02:11:40;-1.10;99.90
25074;DHT22;13066;52.042;5.648;2022-12-18T02:14:21;-1.10;99.90
25074;DHT22;13066;52.042;5.648;2022-12-18T02:16:54;-1.10;99.90
25074;DHT22;13066;52.042;5.648;2022-12-18T02:19:47;-1.10;99.90
25074;DHT22;13066;52.042;5.648;2022-12-18T02:22:26;-1.10;99.90
25074;DHT22;13066;52.042;5.648;2022-12-18T02:25:05;-1.10;99.90
25074;DHT22;13066;52.042;5.648;2022-12-18T02:27:37;-1.10;99.90
25074;DHT22;13066;52.042;5.648;2022-12-18T02:30:07;-1.10;99.90
25074;DHT22;13066;52.042;5.648;2022-12-18T02:32:39;-1.20;99.90
25074;DHT22;13066;52.042;5.648;2022-12-18T02:35:11;-1.20;99.90
25074;DHT22;13066;52.042;5.648;2022-12-18T02:37:41;-1.20;99.90
25074;DHT22;13066;52.042;5.648;2022-12-18T02:40:11;-1.20;99.90
25074;DHT22;13066;52.042;5.648;2022-12-18T02:42:41;-1.20;99.90
25074;DHT22;13066;52.042;5.648;2022-12-18T02:45:10;-1.20;99.90
25074;DHT22;13066;52.042;5.648;2022-12-18T02:47:40;-1.30;99.90
25074;DHT22;13066;52.042;5.648;2022-12-18T02:50:16;-1.30;99.90
25074;DHT22;13066;52.042;5.648;2022-12-18T02:52:52;-1.30;99.90
25074;DHT22;13066;52.042;5.648;2022-12-18T02:55:28;-1.30;99.90
25074;DHT22;13066;52.042;5.648;2022-12-18T02:58:05;-1.30;99.90
25074;DHT22;13066;52.042;5.648;2022-12-18T03:00:37;-1.30;99.90
25074;DHT22;13066;52.042;5.648;2022-12-18T03:03:11;-1.40;99.90
25074;DHT22;13066;52.042;5.648;2022-12-18T03:05:45;-1.40;99.90
25074;DHT22;13066;52.042;5.648;2022-12-18T03:08:17;-1.40;99.90
25074;DHT22;13066;52.042;5.648;2022-12-18T03:10:50;-1.40;99.90
25074;DHT22;13066;52.042;5.648;2022-12-18T03:13:25;-1.40;99.90
25074;DHT22;13066;52.042;5.648;2022-12-18T03:15:55;-1.40;99.90
25074;DHT22;13066;52.042;5.648;2022-12-18T03:18:27;-1.50;99.90
25074;DHT22;13066;52.042;5.648;2022-12-18T03:21:02;-1.50;99.90
25074;DHT22;13066;52.042;5.648;2022-12-18T03:23:35;-1.50;99.90
25074;DHT22;13066;52.042;5.648;2022-12-18T03:26:07;-1.60;99.90
25074;DHT22;13066;52.042;5.648;2022-12-18T03:28:40;-1.50;99.90
25074;DHT22;13066;52.042;5.648;2022-12-18T03:31:12;-1.60;99.90
25074;DHT22;13066;52.042;5.648;2022-12-18T03:33:43;-1.50;99.90
25074;DHT22;13066;52.042;5.648;2022-12-18T03:36:14;-1.50;99.90
25074;DHT22;13066;52.042;5.648;2022-12-18T03:38:42;-1.50;99.90
25074;DHT22;13066;52.042;5.648;2022-12-18T03:41:15;-1.50;99.90
25074;DHT22;13066;52.042;5.648;2022-12-18T03:43:50;-1.50;99.90
25074;DHT22;13066;52.042;5.648;2022-12-18T03:46:26;-1.60;99.90
25074;DHT22;13066;52.042;5.648;2022-12-18T03:49:01;-1.60;99.90
25074;DHT22;13066;52.042;5.648;2022-12-18T03:51:37;-1.70;99.90
25074;DHT22;13066;52.042;5.648;2022-12-18T03:54:08;-1.70;99.90
25074;DHT22;13066;52.042;5.648;2022-12-18T03:56:40;-1.70;99.90
25074;DHT22;13066;52.042;5.648;2022-12-18T03:59:11;-1.70;99.90
25074;DHT22;13066;52.042;5.648;2022-12-18T04:01:43;-1.70;99.90
25074;DHT22;13066;52.042;5.648;2022-12-18T04:04:14;-1.70;99.90
25074;DHT22;13066;52.042;5.648;2022-12-18T04:06:44;-1.70;99.90
25074;DHT22;13066;52.042;5.648;2022-12-18T04:09:13;-1.70;99.90
25074;DHT22;13066;52.042;5.648;2022-12-18T04:11:42;-1.70;99.90
25074;DHT22;13066;52.042;5.648;2022-12-18T04:14:12;-1.70;99.90
25074;DHT22;13066;52.042;5.648;2022-12-18T04:16:44;-1.70;99.90
25074;DHT22;13066;52.042;5.648;2022-12-18T04:19:12;-1.80;99.90
25074;DHT22;13066;52.042;5.648;2022-12-18T04:21:40;-1.70;99.90
25074;DHT22;13066;52.042;5.648;2022-12-18T04:24:08;-1.80;99.90
25074;DHT22;13066;52.042;5.648;2022-12-18T04:26:36;-1.80;99.90
25074;DHT22;13066;52.042;5.648;2022-12-18T04:29:04;-1.80;99.90
25074;DHT22;13066;52.042;5.648;2022-12-18T04:31:34;-1.70;99.90
25074;DHT22;13066;52.042;5.648;2022-12-18T04:34:02;-1.80;99.90
25074;DHT22;13066;52.042;5.648;2022-12-18T04:36:30;-1.80;99.90
25074;DHT22;13066;52.042;5.648;2022-12-18T04:38:58;-1.80;99.90
25074;DHT22;13066;52.042;5.648;2022-12-18T04:41:26;-1.90;99.90
25074;DHT22;13066;52.042;5.648;2022-12-18T04:43:54;-1.90;99.90
25074;DHT22;13066;52.042;5.648;2022-12-18T04:46:22;-1.90;99.90
25074;DHT22;13066;52.042;5.648;2022-12-18T04:48:51;-1.90;99.90
25074;DHT22;13066;52.042;5.648;2022-12-18T04:51:19;-2.00;99.90
25074;DHT22;13066;52.042;5.648;2022-12-18T04:53:52;-1.90;99.90
25074;DHT22;13066;52.042;5.648;2022-12-18T04:56:20;-1.90;99.90
25074;DHT22;13066;52.042;5.648;2022-12-18T04:58:48;-1.90;99.90
25074;DHT22;13066;52.042;5.648;2022-12-18T05:01:17;-1.90;99.90
25074;DHT22;13066;52.042;5.648;2022-12-18T05:03:45;-1.90;99.90
25074;DHT22;13066;52.042;5.648;2022-12-18T05:06:15;-1.90;99.90
25074;DHT22;13066;52.042;5.648;2022-12-18T05:08:43;-1.90;99.90
25074;DHT22;13066;52.042;5.648;2022-12-18T05:11:13;-1.90;99.90
25074;DHT22;13066;52.042;5.648;2022-12-18T05:13:42;-1.90;99.90
25074;DHT22;13066;52.042;5.648;2022-12-18T05:16:10;-1.90;99.90
25074;DHT22;13066;52.042;5.648;2022-12-18T05:18:38;-1.80;99.90
25074;DHT22;13066;52.042;5.648;2022-12-18T05:21:06;-1.90;99.90
25074;DHT22;13066;52.042;5.648;2022-12-18T05:23:36;-1.80;99.90
25074;DHT22;13066;52.042;5.648;2022-12-18T05:26:05;-1.90;99.90
25074;DHT22;13066;52.042;5.648;2022-12-18T05:28:35;-1.80;99.90
25074;DHT22;13066;52.042;5.648;2022-12-18T05:31:04;-1.90;99.90
25074;DHT22;13066;52.042;5.648;2022-12-18T05:33:34;-1.90;99.90
25074;DHT22;13066;52.042;5.648;2022-12-18T05:36:04;-1.90;99.90
25074;DHT22;13066;52.042;5.648;2022-12-18T05:38:34;-1.90;99.90
25074;DHT22;13066;52.042;5.648;2022-12-18T05:41:04;-1.90;99.90
25074;DHT22;13066;52.042;5.648;2022-12-18T05:43:34;-1.90;99.90
25074;DHT22;13066;52.042;5.648;2022-12-18T05:46:07;-1.90;99.90
25074;DHT22;13066;52.042;5.648;2022-12-18T05:48:35;-1.90;99.90
25074;DHT22;13066;52.042;5.648;2022-12-18T05:51:05;-2.00;99.90
25074;DHT22;13066;52.042;5.648;2022-12-18T05:53:33;-2.00;99.90
25074;DHT22;13066;52.042;5.648;2022-12-18T05:56:06;-2.00;99.90
25074;DHT22;13066;52.042;5.648;2022-12-18T05:58:35;-2.00;99.90
25074;DHT22;13066;52.042;5.648;2022-12-18T06:01:08;-2.00;99.90
25074;DHT22;13066;52.042;5.648;2022-12-18T06:03:37;-2.00;99.90
25074;DHT22;13066;52.042;5.648;2022-12-18T06:06:13;-2.10;99.90
25074;DHT22;13066;52.042;5.648;2022-12-18T06:08:41;-2.10;99.90
25074;DHT22;13066;52.042;5.648;2022-12-18T06:11:18;-2.10;99.90
25074;DHT22;13066;52.042;5.648;2022-12-18T06:13:46;-2.20;99.90
25074;DHT22;13066;52.042;5.648;2022-12-18T06:16:23;-2.20;99.90
25074;DHT22;13066;52.042;5.648;2022-12-18T06:18:51;-2.20;99.90
25074;DHT22;13066;52.042;5.648;2022-12-18T06:21:19;-2.20;99.90
25074;DHT22;13066;52.042;5.648;2022-12-18T06:23:47;-2.20;99.90
25074;DHT22;13066;52.042;5.648;2022-12-18T06:26:16;-2.20;99.90
25074;DHT22;13066;52.042;5.648;2022-12-18T06:28:51;-2.20;99.90
25074;DHT22;13066;52.042;5.648;2022-12-18T06:31:19;-2.20;99.90
25074;DHT22;13066;52.042;5.648;2022-12-18T06:33:47;-2.20;99.90
25074;DHT22;13066;52.042;5.648;2022-12-18T06:36:15;-2.30;99.90
25074;DHT22;13066;52.042;5.648;2022-12-18T06:38:44;-2.20;99.90
25074;DHT22;13066;52.042;5.648;2022-12-18T06:41:13;-2.20;99.90
25074;DHT22;13066;52.042;5.648;2022-12-18T06:43:43;-2.20;99.90
25074;DHT22;13066;52.042;5.648;2022-12-18T06:46:12;-2.20;99.90
25074;DHT22;13066;52.042;5.648;2022-12-18T06:48:40;-2.20;99.90
25074;DHT22;13066;52.042;5.648;2022-12-18T06:51:08;-2.10;99.90
25074;DHT22;13066;52.042;5.648;2022-12-18T06:53:36;-2.10;99.90
25074;DHT22;13066;52.042;5.648;2022-12-18T06:56:06;-2.10;99.90
25074;DHT22;13066;52.042;5.648;2022-12-18T06:58:36;-2.10;99.90
25074;DHT22;13066;52.042;5.648;2022-12-18T07:01:08;-2.10;99.90
25074;DHT22;13066;52.042;5.648;2022-12-18T07:03:37;-2.10;99.90
25074;DHT22;13066;52.042;5.648;2022-12-18T07:06:06;-2.10;99.90
25074;DHT22;13066;52.042;5.648;2022-12-18T07:08:34;-2.10;99.90
25074;DHT22;13066;52.042;5.648;2022-12-18T07:11:03;-2.10;99.90
25074;DHT22;13066;52.042;5.648;2022-12-18T07:13:32;-2.00;99.90
25074;DHT22;13066;52.042;5.648;2022-12-18T07:16:06;-2.10;99.90
25074;DHT22;13066;52.042;5.648;2022-12-18T07:18:41;-2.00;99.90
25074;DHT22;13066;52.042;5.648;2022-12-18T07:21:13;-2.00;99.90
25074;DHT22;13066;52.042;5.648;2022-12-18T07:23:41;-2.00;99.90
25074;DHT22;13066;52.042;5.648;2022-12-18T07:26:11;-2.00;99.90
25074;DHT22;13066;52.042;5.648;2022-12-18T07:28:40;-2.00;99.90
25074;DHT22;13066;52.042;5.648;2022-12-18T07:31:12;-2.00;99.90
25074;DHT22;13066;52.042;5.648;2022-12-18T07:33:40;-2.00;99.90
25074;DHT22;13066;52.042;5.648;2022-12-18T07:36:09;-1.90;99.90
25074;DHT22;13066;52.042;5.648;2022-12-18T07:38:38;-2.00;99.90
25074;DHT22;13066;52.042;5.648;2022-12-18T07:41:08;-2.00;99.90
25074;DHT22;13066;52.042;5.648;2022-12-18T07:43:37;-2.00;99.90
25074;DHT22;13066;52.042;5.648;2022-12-18T07:46:07;-2.00;99.90
25074;DHT22;13066;52.042;5.648;2022-12-18T07:48:39;-2.00;99.90
25074;DHT22;13066;52.042;5.648;2022-12-18T07:51:07;-2.00;99.90
25074;DHT22;13066;52.042;5.648;2022-12-18T07:53:36;-2.00;99.90
25074;DHT22;13066;52.042;5.648;2022-12-18T07:56:07;-2.00;99.90
25074;DHT22;13066;52.042;5.648;2022-12-18T07:58:54;-2.00;99.90
25074;DHT22;13066;52.042;5.648;2022-12-18T08:01:22;-2.00;99.90
25074;DHT22;13066;52.042;5.648;2022-12-18T08:03:52;-1.90;99.90
25074;DHT22;13066;52.042;5.648;2022-12-18T08:06:20;-1.90;99.90
25074;DHT22;13066;52.042;5.648;2022-12-18T08:08:51;-1.90;99.90
25074;DHT22;13066;52.042;5.648;2022-12-18T08:11:19;-1.90;99.90
25074;DHT22;13066;52.042;5.648;2022-12-18T08:13:47;-1.90;99.90
25074;DHT22;13066;52.042;5.648;2022-12-18T08:16:15;-1.80;99.90
25074;DHT22;13066;52.042;5.648;2022-12-18T08:18:44;-1.80;99.90
25074;DHT22;13066;52.042;5.648;2022-12-18T08:21:15;-1.80;99.90
25074;DHT22;13066;52.042;5.648;2022-12-18T08:23:46;-1.70;99.90
25074;DHT22;13066;52.042;5.648;2022-12-18T08:26:15;-1.70;99.90
25074;DHT22;13066;52.042;5.648;2022-12-18T08:28:44;-1.70;99.90
25074;DHT22;13066;52.042;5.648;2022-12-18T08:31:13;-1.70;99.90
25074;DHT22;13066;52.042;5.648;2022-12-18T08:33:41;-1.60;99.90
25074;DHT22;13066;52.042;5.648;2022-12-18T08:36:10;-1.60;99.90
25074;DHT22;13066;52.042;5.648;2022-12-18T08:38:39;-1.60;99.90
25074;DHT22;13066;52.042;5.648;2022-12-18T08:41:09;-1.50;99.90
25074;DHT22;13066;52.042;5.648;2022-12-18T08:43:38;-1.50;99.90
25074;DHT22;13066;52.042;5.648;2022-12-18T08:46:25;-1.40;99.90
25074;DHT22;13066;52.042;5.648;2022-12-18T08:48:54;-1.40;99.90
25074;DHT22;13066;52.042;5.648;2022-12-18T08:51:22;-1.40;99.90
25074;DHT22;13066;52.042;5.648;2022-12-18T08:53:52;-1.30;99.90
25074;DHT22;13066;52.042;5.648;2022-12-18T08:56:20;-1.30;99.90
25074;DHT22;13066;52.042;5.648;2022-12-18T08:58:51;-1.30;99.90
25074;DHT22;13066;52.042;5.648;2022-12-18T09:01:20;-1.30;99.90
25074;DHT22;13066;52.042;5.648;2022-12-18T09:03:48;-1.20;99.90
25074;DHT22;13066;52.042;5.648;2022-12-18T09:06:21;-1.20;99.90
25074;DHT22;13066;52.042;5.648;2022-12-18T09:08:49;-1.10;99.90
25074;DHT22;13066;52.042;5.648;2022-12-18T09:11:21;-1.10;99.90
25074;DHT22;13066;52.042;5.648;2022-12-18T09:13:49;-1.10;99.90
25074;DHT22;13066;52.042;5.648;2022-12-18T09:16:18;-1.10;99.90
25074;DHT22;13066;52.042;5.648;2022-12-18T09:18:46;-1.00;99.90
25074;DHT22;13066;52.042;5.648;2022-12-18T09:21:16;-1.00;99.90
25074;DHT22;13066;52.042;5.648;2022-12-18T09:23:49;-0.90;99.90
25074;DHT22;13066;52.042;5.648;2022-12-18T09:26:17;-0.90;99.90
25074;DHT22;13066;52.042;5.648;2022-12-18T09:28:47;-0.90;99.90
25074;DHT22;13066;52.042;5.648;2022-12-18T09:31:15;-0.80;99.90
25074;DHT22;13066;52.042;5.648;2022-12-18T09:33:44;-0.80;99.90
25074;DHT22;13066;52.042;5.648;2022-12-18T09:36:14;-0.70;99.90
25074;DHT22;13066;52.042;5.648;2022-12-18T09:38:43;-0.70;99.90
25074;DHT22;13066;52.042;5.648;2022-12-18T09:41:25;-0.70;99.90
25074;DHT22;13066;52.042;5.648;2022-12-18T09:44:03;-0.60;99.90
25074;DHT22;13066;52.042;5.648;2022-12-18T09:46:35;-0.60;99.90
25074;DHT22;13066;52.042;5.648;2022-12-18T09:49:15;-0.60;99.90
25074;DHT22;13066;52.042;5.648;2022-12-18T09:51:47;-0.60;99.90
25074;DHT22;13066;52.042;5.648;2022-12-18T09:54:21;-0.50;99.90
25074;DHT22;13066;52.042;5.648;2022-12-18T09:56:50;-0.40;99.90
25074;DHT22;13066;52.042;5.648;2022-12-18T09:59:25;-0.40;99.90
25074;DHT22;13066;52.042;5.648;2022-12-18T10:01:54;-0.40;99.90
25074;DHT22;13066;52.042;5.648;2022-12-18T10:04:22;-0.40;99.90
25074;DHT22;13066;52.042;5.648;2022-12-18T10:06:54;-0.30;99.90
25074;DHT22;13066;52.042;5.648;2022-12-18T10:09:28;-0.30;99.90
25074;DHT22;13066;52.042;5.648;2022-12-18T10:12:05;-0.20;99.90
25074;DHT22;13066;52.042;5.648;2022-12-18T10:14:43;-0.20;99.90
25074;DHT22;13066;52.042;5.648;2022-12-18T10:17:20;-0.20;99.90
25074;DHT22;13066;52.042;5.648;2022-12-18T10:19:53;-0.10;99.90
25074;DHT22;13066;52.042;5.648;2022-12-18T10:22:30;-0.10;99.90
25074;DHT22;13066;52.042;5.648;2022-12-18T10:25:05;0.00;99.90
25074;DHT22;13066;52.042;5.648;2022-12-18T10:27:34;0.00;99.90
25074;DHT22;13066;52.042;5.648;2022-12-18T10:30:12;0.00;99.90
25074;DHT22;13066;52.042;5.648;2022-12-18T10:32:41;0.10;99.90
25074;DHT22;13066;52.042;5.648;2022-12-18T10:35:16;0.10;99.90
25074;DHT22;13066;52.042;5.648;2022-12-18T10:38:03;0.20;99.90
25074;DHT22;13066;52.042;5.648;2022-12-18T10:40:31;0.20;99.90
25074;DHT22;13066;52.042;5.648;2022-12-18T10:43:11;0.30;99.90
25074;DHT22;13066;52.042;5.648;2022-12-18T10:45:41;0.30;99.90
25074;DHT22;13066;52.042;5.648;2022-12-18T10:48:18;0.30;99.90
25074;DHT22;13066;52.042;5.648;2022-12-18T10:50:49;0.40;99.90
25074;DHT22;13066;52.042;5.648;2022-12-18T10:53:40;0.40;99.90
25074;DHT22;13066;52.042;5.648;2022-12-18T10:56:10;0.40;99.90
25074;DHT22;13066;52.042;5.648;2022-12-18T10:58:39;0.50;99.90
25074;DHT22;13066;52.042;5.648;2022-12-18T11:01:11;0.50;99.90
25074;DHT22;13066;52.042;5.648;2022-12-18T11:03:41;0.60;99.90
25074;DHT22;13066;52.042;5.648;2022-12-18T11:06:11;0.60;99.90
25074;DHT22;13066;52.042;5.648;2022-12-18T11:08:41;0.60;99.90
25074;DHT22;13066;52.042;5.648;2022-12-18T11:11:20;0.60;99.90
25074;DHT22;13066;52.042;5.648;2022-12-18T11:13:58;0.70;99.90
25074;DHT22;13066;52.042;5.648;2022-12-18T11:16:30;0.70;99.90
25074;DHT22;13066;52.042;5.648;2022-12-18T11:19:21;0.70;99.90
25074;DHT22;13066;52.042;5.648;2022-12-18T11:21:50;0.80;99.90
25074;DHT22;13066;52.042;5.648;2022-12-18T11:24:22;0.80;99.90
25074;DHT22;13066;52.042;5.648;2022-12-18T11:26:52;0.90;99.90
25074;DHT22;13066;52.042;5.648;2022-12-18T11:29:32;0.90;99.90
25074;DHT22;13066;52.042;5.648;2022-12-18T11:32:26;0.90;99.90
25074;DHT22;13066;52.042;5.648;2022-12-18T11:34:59;1.00;99.90
25074;DHT22;13066;52.042;5.648;2022-12-18T11:37:29;1.00;99.90
25074;DHT22;13066;52.042;5.648;2022-12-18T11:40:02;1.00;99.90
25074;DHT22;13066;52.042;5.648;2022-12-18T11:42:37;1.10;99.90
25074;DHT22;13066;52.042;5.648;2022-12-18T11:45:25;1.10;99.90
25074;DHT22;13066;52.042;5.648;2022-12-18T11:47:59;1.10;99.90
25074;DHT22;13066;52.042;5.648;2022-12-18T11:50:33;1.20;99.90
25074;DHT22;13066;52.042;5.648;2022-12-18T11:53:10;1.20;99.90
25074;DHT22;13066;52.042;5.648;2022-12-18T11:55:43;1.20;99.90
25074;DHT22;13066;52.042;5.648;2022-12-18T11:58:21;1.30;99.90
25074;DHT22;13066;52.042;5.648;2022-12-18T12:01:03;1.30;99.90
25074;DHT22;13066;52.042;5.648;2022-12-18T12:03:56;1.40;99.90
25074;DHT22;13066;52.042;5.648;2022-12-18T12:06:33;1.40;99.90
25074;DHT22;13066;52.042;5.648;2022-12-18T12:09:10;1.40;99.90
25074;DHT22;13066;52.042;5.648;2022-12-18T12:11:50;1.60;99.90
25074;DHT22;13066;52.042;5.648;2022-12-18T12:14:34;1.80;99.90
25074;DHT22;13066;52.042;5.648;2022-12-18T12:17:12;2.00;99.90
25074;DHT22;13066;52.042;5.648;2022-12-18T12:19:48;2.20;99.90
25074;DHT22;13066;52.042;5.648;2022-12-18T12:22:26;2.30;99.90
25074;DHT22;13066;52.042;5.648;2022-12-18T12:25:13;2.40;99.90
25074;DHT22;13066;52.042;5.648;2022-12-18T12:27:44;2.60;99.90
25074;DHT22;13066;52.042;5.648;2022-12-18T12:30:20;2.70;99.90
25074;DHT22;13066;52.042;5.648;2022-12-18T12:32:56;2.70;99.90
25074;DHT22;13066;52.042;5.648;2022-12-18T12:35:40;2.60;99.90
25074;DHT22;13066;52.042;5.648;2022-12-18T12:38:13;2.60;99.90
25074;DHT22;13066;52.042;5.648;2022-12-18T12:40:45;2.50;99.90
25074;DHT22;13066;52.042;5.648;2022-12-18T12:43:27;2.40;99.90
25074;DHT22;13066;52.042;5.648;2022-12-18T12:45:57;2.40;99.90
25074;DHT22;13066;52.042;5.648;2022-12-18T12:48:40;2.40;99.90
25074;DHT22;13066;52.042;5.648;2022-12-18T12:51:19;2.40;99.90
25074;DHT22;13066;52.042;5.648;2022-12-18T12:53:48;2.40;99.90
25074;DHT22;13066;52.042;5.648;2022-12-18T12:56:18;2.30;99.90
25074;DHT22;13066;52.042;5.648;2022-12-18T12:58:54;2.30;99.90
25074;DHT22;13066;52.042;5.648;2022-12-18T13:01:30;2.30;99.90
25074;DHT22;13066;52.042;5.648;2022-12-18T13:04:14;2.30;99.90
25074;DHT22;13066;52.042;5.648;2022-12-18T13:06:50;2.30;99.90
25074;DHT22;13066;52.042;5.648;2022-12-18T13:09:21;2.30;99.90
25074;DHT22;13066;52.042;5.648;2022-12-18T13:11:50;2.30;99.90
25074;DHT22;13066;52.042;5.648;2022-12-18T13:14:37;2.30;99.90
25074;DHT22;13066;52.042;5.648;2022-12-18T13:17:22;2.20;99.90
25074;DHT22;13066;52.042;5.648;2022-12-18T13:20:07;2.20;99.90
25074;DHT22;13066;52.042;5.648;2022-12-18T13:22:39;2.20;99.90
25074;DHT22;13066;52.042;5.648;2022-12-18T13:25:30;2.20;99.90
25074;DHT22;13066;52.042;5.648;2022-12-18T13:28:02;2.20;99.90
25074;DHT22;13066;52.042;5.648;2022-12-18T13:30:51;2.20;99.90
25074;DHT22;13066;52.042;5.648;2022-12-18T13:33:40;2.20;99.90
25074;DHT22;13066;52.042;5.648;2022-12-18T13:36:31;2.20;99.90
25074;DHT22;13066;52.042;5.648;2022-12-18T13:39:33;2.20;99.90
25074;DHT22;13066;52.042;5.648;2022-12-18T13:42:39;2.20;99.90
25074;DHT22;13066;52.042;5.648;2022-12-18T13:45:37;2.20;99.90
25074;DHT22;13066;52.042;5.648;2022-12-18T13:48:19;2.20;99.90
25074;DHT22;13066;52.042;5.648;2022-12-18T13:50:59;2.20;99.90
25074;DHT22;13066;52.042;5.648;2022-12-18T13:53:31;2.10;99.90
25074;DHT22;13066;52.042;5.648;2022-12-18T13:56:02;2.10;99.90
25074;DHT22;13066;52.042;5.648;2022-12-18T13:58:31;2.20;99.90
25074;DHT22;13066;52.042;5.648;2022-12-18T14:00:59;2.20;99.90
25074;DHT22;13066;52.042;5.648;2022-12-18T14:03:30;2.20;99.90
25074;DHT22;13066;52.042;5.648;2022-12-18T14:06:03;2.20;99.90
25074;DHT22;13066;52.042;5.648;2022-12-18T14:08:37;2.20;99.90
25074;DHT22;13066;52.042;5.648;2022-12-18T14:11:19;2.20;99.90
25074;DHT22;13066;52.042;5.648;2022-12-18T14:13:48;2.20;99.90
25074;DHT22;13066;52.042;5.648;2022-12-18T14:16:17;2.20;99.90
25074;DHT22;13066;52.042;5.648;2022-12-18T14:18:48;2.20;99.90
25074;DHT22;13066;52.042;5.648;2022-12-18T14:21:21;2.20;99.90
25074;DHT22;13066;52.042;5.648;2022-12-18T14:24:03;2.20;99.90
25074;DHT22;13066;52.042;5.648;2022-12-18T14:26:32;2.20;99.90
25074;DHT22;13066;52.042;5.648;2022-12-18T14:29:17;2.20;99.90
25074;DHT22;13066;52.042;5.648;2022-12-18T14:32:04;2.20;99.90
25074;DHT22;13066;52.042;5.648;2022-12-18T14:34:40;2.20;99.90
25074;DHT22;13066;52.042;5.648;2022-12-18T14:37:10;2.20;99.90
25074;DHT22;13066;52.042;5.648;2022-12-18T14:39:39;2.20;99.90
25074;DHT22;13066;52.042;5.648;2022-12-18T14:42:11;2.20;99.90
25074;DHT22;13066;52.042;5.648;2022-12-18T14:44:39;2.20;99.90
25074;DHT22;13066;52.042;5.648;2022-12-18T14:47:27;2.20;99.90
25074;DHT22;13066;52.042;5.648;2022-12-18T14:49:55;2.20;99.90
25074;DHT22;13066;52.042;5.648;2022-12-18T14:52:27;2.20;99.90
25074;DHT22;13066;52.042;5.648;2022-12-18T14:54:55;2.20;99.90
25074;DHT22;13066;52.042;5.648;2022-12-18T14:57:35;2.20;99.90
25074;DHT22;13066;52.042;5.648;2022-12-18T15:00:06;2.20;99.90
25074;DHT22;13066;52.042;5.648;2022-12-18T15:02:34;2.20;99.90
25074;DHT22;13066;52.042;5.648;2022-12-18T15:05:05;2.20;99.90
25074;DHT22;13066;52.042;5.648;2022-12-18T15:07:44;2.20;99.90
25074;DHT22;13066;52.042;5.648;2022-12-18T15:10:15;2.20;99.90
25074;DHT22;13066;52.042;5.648;2022-12-18T15:12:45;2.20;99.90
25074;DHT22;13066;52.042;5.648;2022-12-18T15:15:45;2.20;99.90
25074;DHT22;13066;52.042;5.648;2022-12-18T15:18:15;2.20;99.90
25074;DHT22;13066;52.042;5.648;2022-12-18T15:20:45;2.20;99.90
25074;DHT22;13066;52.042;5.648;2022-12-18T15:23:17;2.20;99.90
25074;DHT22;13066;52.042;5.648;2022-12-18T15:25:46;2.20;99.90
25074;DHT22;13066;52.042;5.648;2022-12-18T15:28:21;2.20;99.90
25074;DHT22;13066;52.042;5.648;2022-12-18T15:31:02;2.20;99.90
25074;DHT22;13066;52.042;5.648;2022-12-18T15:33:33;2.20;99.90
25074;DHT22;13066;52.042;5.648;2022-12-18T15:36:04;2.20;99.90
25074;DHT22;13066;52.042;5.648;2022-12-18T15:38:32;2.10;99.90
25074;DHT22;13066;52.042;5.648;2022-12-18T15:41:00;2.10;99.90
25074;DHT22;13066;52.042;5.648;2022-12-18T15:43:30;2.20;99.90
25074;DHT22;13066;52.042;5.648;2022-12-18T15:46:01;2.10;99.90
25074;DHT22;13066;52.042;5.648;2022-12-18T15:48:29;2.10;99.90
25074;DHT22;13066;52.042;5.648;2022-12-18T15:50:57;2.10;99.90
25074;DHT22;13066;52.042;5.648;2022-12-18T15:53:29;2.20;99.90
25074;DHT22;13066;52.042;5.648;2022-12-18T15:55:58;2.10;99.90
25074;DHT22;13066;52.042;5.648;2022-12-18T15:58:45;2.10;99.90
25074;DHT22;13066;52.042;5.648;2022-12-18T16:01:13;2.10;99.90
25074;DHT22;13066;52.042;5.648;2022-12-18T16:03:41;2.10;99.90
25074;DHT22;13066;52.042;5.648;2022-12-18T16:06:10;2.10;99.90
25074;DHT22;13066;52.042;5.648;2022-12-18T16:08:38;2.10;99.90